sensor_id;sensor_type;location;lat;lon;timestamp;P1;durP1;ratioP1;P2;durP2;ratioP2
12369;SDS011;6249;52.128;9.986;2023-06-26T00:02:44;9.37;;;5.70;;
12369;SDS011;6249;52.128;9.986;2023-06-26T00:12:47;6.80;;;5.03;;
12369;SDS011;6249;52.128;9.986;2023-06-26T00:22:50;9.00;;;6.17;;
12369;SDS011;6249;52.128;9.986;2023-06-26T00:32:51;9.93;;;6.17;;
12369;SDS011;6249;52.128;9.986;2023-06-26T00:42:51;8.53;;;5.30;;
12369;SDS011;6249;52.128;9.986;2023-06-26T00:52:52;9.50;;;5.40;;
12369;SDS011;6249;52.128;9.986;2023-06-26T01:02:54;8.10;;;5.00;;
12369;SDS011;6249;52.128;9.986;2023-06-26T01:13:01;6.83;;;5.00;;
12369;SDS011;6249;52.128;9.986;2023-06-26T01:33:11;7.60;;;4.77;;
12369;SDS011;6249;52.128;9.986;2023-06-26T01:43:24;8.67;;;5.40;;
12369;SDS011;6249;52.128;9.986;2023-06-26T01:53:33;8.90;;;5.20;;
12369;SDS011;6249;52.128;9.986;2023-06-26T02:03:38;12.43;;;4.67;;
12369;SDS011;6249;52.128;9.986;2023-06-26T02:13:39;9.10;;;5.00;;
12369;SDS011;6249;52.128;9.986;2023-06-26T02:23:39;7.20;;;4.70;;
12369;SDS011;6249;52.128;9.986;2023-06-26T02:33:42;7.30;;;4.67;;
12369;SDS011;6249;52.128;9.986;2023-06-26T02:43:45;6.93;;;4.63;;
12369;SDS011;6249;52.128;9.986;2023-06-26T02:53:50;7.10;;;4.33;;
12369;SDS011;6249;52.128;9.986;2023-06-26T03:03:51;6.83;;;4.73;;
12369;SDS011;6249;52.128;9.986;2023-06-26T03:13:52;10.53;;;5.13;;
12369;SDS011;6249;52.128;9.986;2023-06-26T03:23:53;10.00;;;5.40;;
12369;SDS011;6249;52.128;9.986;2023-06-26T03:33:56;7.23;;;4.80;;
12369;SDS011;6249;52.128;9.986;2023-06-26T03:43:56;6.87;;;4.60;;
12369;SDS011;6249;52.128;9.986;2023-06-26T03:53:57;11.57;;;5.30;;
12369;SDS011;6249;52.128;9.986;2023-06-26T04:03:59;7.33;;;4.87;;
12369;SDS011;6249;52.128;9.986;2023-06-26T04:14:02;8.63;;;5.33;;
12369;SDS011;6249;52.128;9.986;2023-06-26T04:24:05;9.70;;;4.87;;
12369;SDS011;6249;52.128;9.986;2023-06-26T04:34:06;10.50;;;5.10;;
12369;SDS011;6249;52.128;9.986;2023-06-26T04:44:09;7.50;;;5.07;;
12369;SDS011;6249;52.128;9.986;2023-06-26T04:54:10;7.07;;;4.50;;
12369;SDS011;6249;52.128;9.986;2023-06-26T05:04:11;7.10;;;5.00;;
12369;SDS011;6249;52.128;9.986;2023-06-26T05:14:11;11.40;;;5.00;;
12369;SDS011;6249;52.128;9.986;2023-06-26T05:24:14;13.83;;;5.40;;
12369;SDS011;6249;52.128;9.986;2023-06-26T05:34:16;7.50;;;5.13;;
12369;SDS011;6249;52.128;9.986;2023-06-26T05:44:22;9.40;;;5.47;;
12369;SDS011;6249;52.128;9.986;2023-06-26T05:54:23;9.10;;;5.63;;
12369;SDS011;6249;52.128;9.986;2023-06-26T06:04:27;14.37;;;5.03;;
12369;SDS011;6249;52.128;9.986;2023-06-26T06:14:27;9.50;;;5.60;;
12369;SDS011;6249;52.128;9.986;2023-06-26T06:24:30;10.67;;;5.67;;
12369;SDS011;6249;52.128;9.986;2023-06-26T06:34:31;7.40;;;5.57;;
12369;SDS011;6249;52.128;9.986;2023-06-26T06:44:31;9.80;;;5.50;;
12369;SDS011;6249;52.128;9.986;2023-06-26T06:54:32;8.90;;;6.00;;
12369;SDS011;6249;52.128;9.986;2023-06-26T07:04:54;8.50;;;5.53;;
12369;SDS011;6249;52.128;9.986;2023-06-26T07:14:57;7.83;;;5.93;;
12369;SDS011;6249;52.128;9.986;2023-06-26T07:24:57;9.40;;;5.07;;
12369;SDS011;6249;52.128;9.986;2023-06-26T07:34:58;13.20;;;6.40;;
12369;SDS011;6249;52.128;9.986;2023-06-26T07:45:01;8.47;;;5.30;;
12369;SDS011;6249;52.128;9.986;2023-06-26T07:55:02;11.10;;;6.17;;
12369;SDS011;6249;52.128;9.986;2023-06-26T08:05:05;9.67;;;5.80;;
12369;SDS011;6249;52.128;9.986;2023-06-26T08:15:06;7.77;;;5.73;;
12369;SDS011;6249;52.128;9.986;2023-06-26T08:25:09;8.97;;;6.50;;
12369;SDS011;6249;52.128;9.986;2023-06-26T08:35:12;9.10;;;6.40;;
12369;SDS011;6249;52.128;9.986;2023-06-26T08:45:16;10.77;;;6.40;;
12369;SDS011;6249;52.128;9.986;2023-06-26T08:55:19;10.80;;;6.60;;
12369;SDS011;6249;52.128;9.986;2023-06-26T09:05:26;11.93;;;6.13;;
12369;SDS011;6249;52.128;9.986;2023-06-26T09:15:27;10.37;;;5.90;;
12369;SDS011;6249;52.128;9.986;2023-06-26T09:25:38;9.60;;;6.90;;
12369;SDS011;6249;52.128;9.986;2023-06-26T09:35:44;9.43;;;6.60;;
12369;SDS011;6249;52.128;9.986;2023-06-26T09:45:45;11.03;;;8.00;;
12369;SDS011;6249;52.128;9.986;2023-06-26T09:55:46;17.23;;;8.20;;
12369;SDS011;6249;52.128;9.986;2023-06-26T10:05:46;11.40;;;7.30;;
12369;SDS011;6249;52.128;9.986;2023-06-26T10:15:49;10.30;;;6.83;;
12369;SDS011;6249;52.128;9.986;2023-06-26T10:25:51;16.53;;;8.60;;
12369;SDS011;6249;52.128;9.986;2023-06-26T10:35:56;15.83;;;8.17;;
12369;SDS011;6249;52.128;9.986;2023-06-26T10:46:14;8.63;;;6.60;;
12369;SDS011;6249;52.128;9.986;2023-06-26T10:56:15;14.00;;;7.93;;
12369;SDS011;6249;52.128;9.986;2023-06-26T11:06:19;17.10;;;10.83;;
12369;SDS011;6249;52.128;9.986;2023-06-26T11:16:20;14.67;;;10.33;;
12369;SDS011;6249;52.128;9.986;2023-06-26T11:26:22;20.47;;;10.90;;
12369;SDS011;6249;52.128;9.986;2023-06-26T11:36:23;14.03;;;8.73;;
12369;SDS011;6249;52.128;9.986;2023-06-26T11:46:25;12.50;;;6.83;;
12369;SDS011;6249;52.128;9.986;2023-06-26T11:56:26;12.65;;;7.68;;
12369;SDS011;6249;52.128;9.986;2023-06-26T12:06:29;11.23;;;7.20;;
12369;SDS011;6249;52.128;9.986;2023-06-26T12:16:36;16.50;;;9.40;;
12369;SDS011;6249;52.128;9.986;2023-06-26T12:26:41;16.10;;;8.30;;
12369;SDS011;6249;52.128;9.986;2023-06-26T12:36:44;15.03;;;9.33;;
12369;SDS011;6249;52.128;9.986;2023-06-26T12:46:49;17.07;;;7.47;;
12369;SDS011;6249;52.128;9.986;2023-06-26T12:56:53;9.30;;;6.00;;
12369;SDS011;6249;52.128;9.986;2023-06-26T13:06:53;10.80;;;6.70;;
12369;SDS011;6249;52.128;9.986;2023-06-26T13:16:54;13.83;;;5.90;;
12369;SDS011;6249;52.128;9.986;2023-06-26T13:26:57;8.10;;;4.80;;
12369;SDS011;6249;52.128;9.986;2023-06-26T13:37:03;8.17;;;4.87;;
12369;SDS011;6249;52.128;9.986;2023-06-26T13:47:03;8.00;;;3.60;;
12369;SDS011;6249;52.128;9.986;2023-06-26T13:57:06;11.03;;;3.23;;
12369;SDS011;6249;52.128;9.986;2023-06-26T14:07:08;7.83;;;2.80;;
12369;SDS011;6249;52.128;9.986;2023-06-26T14:17:09;5.30;;;3.03;;
12369;SDS011;6249;52.128;9.986;2023-06-26T14:27:11;10.10;;;3.07;;
12369;SDS011;6249;52.128;9.986;2023-06-26T14:37:13;5.70;;;2.80;;
12369;SDS011;6249;52.128;9.986;2023-06-26T14:47:19;6.23;;;2.40;;
12369;SDS011;6249;52.128;9.986;2023-06-26T14:57:22;8.07;;;2.90;;
12369;SDS011;6249;52.128;9.986;2023-06-26T15:07:24;9.67;;;2.43;;
12369;SDS011;6249;52.128;9.986;2023-06-26T15:17:25;6.53;;;2.83;;
12369;SDS011;6249;52.128;9.986;2023-06-26T15:27:25;4.83;;;2.60;;
12369;SDS011;6249;52.128;9.986;2023-06-26T15:37:31;8.40;;;3.63;;
12369;SDS011;6249;52.128;9.986;2023-06-26T15:47:32;8.50;;;2.50;;
12369;SDS011;6249;52.128;9.986;2023-06-26T15:57:32;6.73;;;2.43;;
12369;SDS011;6249;52.128;9.986;2023-06-26T16:07:36;10.67;;;2.60;;
12369;SDS011;6249;52.128;9.986;2023-06-26T16:17:39;10.93;;;2.60;;
12369;SDS011;6249;52.128;9.986;2023-06-26T16:27:40;5.47;;;2.50;;
12369;SDS011;6249;52.128;9.986;2023-06-26T16:37:43;5.53;;;2.43;;
12369;SDS011;6249;52.128;9.986;2023-06-26T16:47:43;4.43;;;2.30;;
12369;SDS011;6249;52.128;9.986;2023-06-26T16:57:44;7.13;;;2.30;;
12369;SDS011;6249;52.128;9.986;2023-06-26T17:07:45;7.70;;;2.10;;
12369;SDS011;6249;52.128;9.986;2023-06-26T17:17:48;6.53;;;2.60;;
12369;SDS011;6249;52.128;9.986;2023-06-26T17:27:49;16.13;;;2.50;;
12369;SDS011;6249;52.128;9.986;2023-06-26T17:37:50;6.63;;;2.27;;
12369;SDS011;6249;52.128;9.986;2023-06-26T17:47:50;4.83;;;1.90;;
12369;SDS011;6249;52.128;9.986;2023-06-26T17:57:53;6.57;;;2.10;;
12369;SDS011;6249;52.128;9.986;2023-06-26T18:07:58;10.60;;;2.23;;
12369;SDS011;6249;52.128;9.986;2023-06-26T18:18:01;8.77;;;2.50;;
12369;SDS011;6249;52.128;9.986;2023-06-26T18:28:07;6.20;;;2.40;;
12369;SDS011;6249;52.128;9.986;2023-06-26T18:38:07;9.00;;;1.57;;
12369;SDS011;6249;52.128;9.986;2023-06-26T18:48:11;5.60;;;1.60;;
12369;SDS011;6249;52.128;9.986;2023-06-26T18:58:14;4.40;;;1.60;;
12369;SDS011;6249;52.128;9.986;2023-06-26T19:08:18;5.27;;;1.67;;
12369;SDS011;6249;52.128;9.986;2023-06-26T19:18:20;7.60;;;1.80;;
12369;SDS011;6249;52.128;9.986;2023-06-26T19:28:25;4.00;;;1.50;;
12369;SDS011;6249;52.128;9.986;2023-06-26T19:38:26;6.83;;;1.73;;
12369;SDS011;6249;52.128;9.986;2023-06-26T19:48:27;5.90;;;1.50;;
12369;SDS011;6249;52.128;9.986;2023-06-26T19:58:27;6.33;;;1.47;;
12369;SDS011;6249;52.128;9.986;2023-06-26T20:08:28;4.93;;;1.57;;
12369;SDS011;6249;52.128;9.986;2023-06-26T20:18:28;6.38;;;1.67;;
12369;SDS011;6249;52.128;9.986;2023-06-26T20:28:29;5.32;;;1.70;;
12369;SDS011;6249;52.128;9.986;2023-06-26T20:38:32;5.17;;;1.70;;
12369;SDS011;6249;52.128;9.986;2023-06-26T20:48:33;8.70;;;1.53;;
12369;SDS011;6249;52.128;9.986;2023-06-26T20:58:37;8.53;;;2.00;;
12369;SDS011;6249;52.128;9.986;2023-06-26T21:08:39;5.00;;;1.60;;
12369;SDS011;6249;52.128;9.986;2023-06-26T21:18:42;7.63;;;1.70;;
12369;SDS011;6249;52.128;9.986;2023-06-26T21:28:43;12.53;;;2.10;;
12369;SDS011;6249;52.128;9.986;2023-06-26T21:38:46;10.70;;;3.20;;
12369;SDS011;6249;52.128;9.986;2023-06-26T21:48:46;18.77;;;2.60;;
12369;SDS011;6249;52.128;9.986;2023-06-26T21:58:47;9.57;;;2.97;;
12369;SDS011;6249;52.128;9.986;2023-06-26T22:08:48;11.63;;;3.13;;
12369;SDS011;6249;52.128;9.986;2023-06-26T22:18:51;8.50;;;2.60;;
12369;SDS011;6249;52.128;9.986;2023-06-26T22:28:54;11.70;;;2.60;;
12369;SDS011;6249;52.128;9.986;2023-06-26T22:38:54;8.90;;;2.80;;
12369;SDS011;6249;52.128;9.986;2023-06-26T22:48:55;6.57;;;3.10;;
12369;SDS011;6249;52.128;9.986;2023-06-26T22:58:58;11.23;;;3.03;;
12369;SDS011;6249;52.128;9.986;2023-06-26T23:08:59;8.63;;;2.70;;
12369;SDS011;6249;52.128;9.986;2023-06-26T23:19:06;10.13;;;2.63;;
12369;SDS011;6249;52.128;9.986;2023-06-26T23:29:07;15.10;;;3.00;;
12369;SDS011;6249;52.128;9.986;2023-06-26T23:39:08;17.43;;;3.70;;
12369;SDS011;6249;52.128;9.986;2023-06-26T23:49:11;7.27;;;2.80;;
12369;SDS011;6249;52.128;9.986;2023-06-26T23:59:12;12.77;;;3.03;;
